Time;durP1;ratioP1;P1;durP2;ratioP2;P2;SDS_P1;SDS_P2;PMS_P1;PMS_P2;Temp;Humidity;BMP_temperature;BMP_pressure;BME280_temperature;BME280_humidity;BME280_pressure;Samples;Min_cycle;Max_cycle;Signal;HPM_P1;HPM_P2
2023/12/09 00:00:47;;;;;;;10.82;6.78;;;-0.80;99.90;;;;;;5081824;28;20128;-81
2023/12/09 00:03:12;;;;;;;10.82;6.47;;;-0.80;99.90;;;;;;5081895;28;20028;-81
2023/12/09 00:05:38;;;;;;;10.82;7.00;;;-0.80;99.90;;;;;;5065150;28;20113;-80
2023/12/09 00:08:04;;;;;;;10.23;6.53;;;-0.80;99.90;;;;;;5082411;28;20028;-80
2023/12/09 00:10:30;;;;;;;11.60;6.18;;;-0.80;99.90;;;;;;5081169;28;20052;-81
2023/12/09 00:12:55;;;;;;;10.02;6.30;;;-0.80;99.90;;;;;;5081290;28;20036;-80
2023/12/09 00:15:21;;;;;;;10.13;5.78;;;-0.80;99.90;;;;;;5080136;28;20492;-80
2023/12/09 00:17:47;;;;;;;11.25;6.32;;;-0.80;99.90;;;;;;5079600;28;20032;-82
2023/12/09 00:20:12;;;;;;;9.15;5.88;;;-0.80;99.90;;;;;;5084512;28;20025;-80
2023/12/09 00:22:38;;;;;;;10.48;6.22;;;-0.80;99.90;;;;;;5082852;28;20028;-81
2023/12/09 00:25:06;;;;;;;12.05;7.65;;;-0.80;99.90;;;;;;5080180;28;20115;-82
2023/12/09 00:27:32;;;;;;;12.25;7.47;;;-0.80;99.90;;;;;;5084022;28;20033;-82
2023/12/09 00:29:57;;;;;;;11.88;7.18;;;-0.80;99.90;;;;;;5081771;28;20047;-82
2023/12/09 00:32:23;;;;;;;13.27;8.15;;;-0.80;99.90;;;;;;5081074;28;20029;-80
2023/12/09 00:34:48;;;;;;;13.88;8.65;;;-0.80;99.90;;;;;;5066922;28;20106;-81
2023/12/09 00:37:14;;;;;;;12.15;8.07;;;-0.80;99.90;;;;;;5083059;28;20031;-81
2023/12/09 00:39:40;;;;;;;11.65;7.22;;;-0.70;99.90;;;;;;5045904;28;20048;-82
2023/12/09 00:42:06;;;;;;;13.55;8.05;;;-0.70;99.90;;;;;;5078431;28;20450;-81
2023/12/09 00:44:31;;;;;;;12.65;7.88;;;-0.70;99.90;;;;;;5075979;28;20024;-80
2023/12/09 00:46:57;;;;;;;12.68;8.15;;;-0.60;99.90;;;;;;5044990;28;20400;-82
2023/12/09 00:49:23;;;;;;;12.02;7.50;;;-0.60;99.90;;;;;;5080399;28;20032;-83
2023/12/09 00:51:49;;;;;;;12.95;7.63;;;-0.50;99.90;;;;;;5076875;28;20159;-82
2023/12/09 00:54:14;;;;;;;11.40;7.28;;;-0.50;99.90;;;;;;5075785;28;20028;-82
2023/12/09 00:56:40;;;;;;;12.50;7.25;;;-0.50;99.90;;;;;;5059939;28;20048;-82
2023/12/09 00:59:07;;;;;;;11.25;6.75;;;-0.40;99.90;;;;;;5064509;28;20057;-81
2023/12/09 01:01:35;;;;;;;13.00;7.35;;;-0.40;99.90;;;;;;5081125;28;20017;-82
2023/12/09 01:04:01;;;;;;;10.50;7.05;;;-0.30;99.90;;;;;;5082720;28;20035;-82
2023/12/09 01:06:28;;;;;;;12.10;7.47;;;-0.40;99.90;;;;;;5083487;28;20028;-82
2023/12/09 01:08:54;;;;;;;12.27;7.82;;;-0.30;99.90;;;;;;5078629;28;20025;-82
2023/12/09 01:11:20;;;;;;;13.20;7.53;;;-0.30;99.90;;;;;;5077425;28;20040;-82
2023/12/09 01:13:45;;;;;;;13.18;7.93;;;-0.30;99.90;;;;;;5062998;28;20039;-81
2023/12/09 01:16:11;;;;;;;12.52;7.57;;;-0.30;99.90;;;;;;5077474;28;20062;-82
2023/12/09 01:18:36;;;;;;;10.30;6.90;;;-0.30;99.90;;;;;;5077107;28;20472;-82
2023/12/09 01:21:03;;;;;;;14.95;7.53;;;-0.30;99.90;;;;;;5076793;28;20552;-82
2023/12/09 01:23:28;;;;;;;10.80;7.15;;;-0.20;99.90;;;;;;5075921;28;20099;-81
2023/12/09 01:25:54;;;;;;;11.48;7.63;;;-0.20;99.90;;;;;;5078451;28;20524;-82
2023/12/09 01:28:19;;;;;;;12.93;7.68;;;-0.20;99.90;;;;;;5076848;28;20045;-82
2023/12/09 01:30:45;;;;;;;11.10;7.22;;;-0.20;99.90;;;;;;5075490;28;20032;-81
2023/12/09 01:33:11;;;;;;;12.50;7.53;;;-0.20;99.90;;;;;;5060016;28;20036;-82
2023/12/09 01:35:36;;;;;;;15.32;8.05;;;-0.20;99.90;;;;;;5062903;28;20052;-81
2023/12/09 01:38:02;;;;;;;12.00;7.47;;;-0.20;99.90;;;;;;5060279;28;20053;-82
2023/12/09 01:40:28;;;;;;;14.98;8.55;;;-0.20;99.90;;;;;;5059654;28;20045;-80
2023/12/09 01:42:54;;;;;;;13.90;8.02;;;-0.20;99.90;;;;;;5060380;28;20036;-82
2023/12/09 01:45:20;;;;;;;13.30;8.13;;;-0.20;99.90;;;;;;5059092;28;20370;-80
2023/12/09 01:47:47;;;;;;;13.38;8.35;;;-0.20;99.90;;;;;;5055693;28;20072;-81
2023/12/09 01:50:14;;;;;;;12.18;7.45;;;-0.30;99.90;;;;;;5062529;28;20370;-81
2023/12/09 01:52:41;;;;;;;10.48;7.40;;;-0.20;99.90;;;;;;5062539;28;20123;-81
2023/12/09 01:55:09;;;;;;;11.73;7.10;;;-0.20;99.90;;;;;;5063181;28;20029;-83
2023/12/09 01:57:35;;;;;;;11.40;7.07;;;-0.20;99.90;;;;;;5064013;28;20078;-82
2023/12/09 02:00:03;;;;;;;11.45;7.82;;;-0.20;99.90;;;;;;5080297;28;20087;-82
2023/12/09 02:02:29;;;;;;;12.65;7.90;;;-0.20;99.90;;;;;;5064690;28;20024;-82
2023/12/09 02:04:55;;;;;;;14.60;9.15;;;-0.20;99.90;;;;;;5076280;28;20465;-81
2023/12/09 02:07:21;;;;;;;13.38;8.27;;;-0.20;99.90;;;;;;5079351;28;20400;-81
2023/12/09 02:09:47;;;;;;;12.82;8.27;;;-0.20;99.90;;;;;;5074772;28;20032;-82
2023/12/09 02:12:23;;;;;;;14.73;8.43;;;-0.20;99.90;;;;;;5058162;28;20041;-81
2023/12/09 02:15:09;;;;;;;12.60;8.13;;;-0.20;99.90;;;;;;5074881;28;20108;-82
2023/12/09 02:17:44;;;;;;;13.48;7.97;;;-0.20;99.90;;;;;;5076223;28;20039;-82
2023/12/09 02:20:13;;;;;;;12.73;7.85;;;-0.20;99.90;;;;;;5075828;28;20075;-82
2023/12/09 02:22:39;;;;;;;14.32;8.52;;;-0.20;99.90;;;;;;5060282;28;20142;-82
2023/12/09 02:25:05;;;;;;;14.48;8.18;;;-0.20;99.90;;;;;;5067105;28;20471;-82
2023/12/09 02:27:36;;;;;;;11.63;7.72;;;-0.20;99.90;;;;;;5084209;28;20127;-83
2023/12/09 02:30:28;;;;;;;9.63;6.07;;;-0.20;99.90;;;;;;5083617;28;20055;-82
2023/12/09 02:32:55;;;;;;;13.60;8.10;;;-0.20;99.90;;;;;;5083378;28;20029;-82
2023/12/09 02:35:24;;;;;;;11.52;7.85;;;-0.20;99.90;;;;;;5081097;28;20559;-81
2023/12/09 02:37:52;;;;;;;12.00;7.97;;;-0.20;99.90;;;;;;5082543;28;20025;-81
2023/12/09 02:40:18;;;;;;;11.18;7.82;;;-0.20;99.90;;;;;;5082800;28;20020;-81
2023/12/09 02:42:45;;;;;;;12.55;7.65;;;-0.20;99.90;;;;;;5080656;28;20492;-81
2023/12/09 02:45:12;;;;;;;12.63;8.07;;;-0.20;99.90;;;;;;5082523;28;20033;-82
2023/12/09 02:47:37;;;;;;;13.38;8.32;;;-0.20;99.90;;;;;;5082395;28;20392;-82
2023/12/09 02:50:04;;;;;;;12.70;8.70;;;-0.20;99.90;;;;;;5081129;28;20025;-81
2023/12/09 02:52:29;;;;;;;13.18;7.93;;;-0.20;99.90;;;;;;5064454;28;20035;-81
2023/12/09 02:54:55;;;;;;;10.55;7.32;;;-0.20;99.90;;;;;;5080671;28;20112;-82
2023/12/09 02:57:20;;;;;;;14.30;8.95;;;-0.20;99.90;;;;;;5059400;28;20025;-82
2023/12/09 02:59:46;;;;;;;16.98;10.07;;;-0.20;99.90;;;;;;5079405;28;20016;-81
2023/12/09 03:02:12;;;;;;;15.00;9.10;;;-0.20;99.90;;;;;;5079056;28;20056;-82
2023/12/09 03:04:38;;;;;;;16.73;10.18;;;-0.20;99.90;;;;;;5076518;28;20025;-81
2023/12/09 03:07:03;;;;;;;20.42;11.25;;;-0.20;99.90;;;;;;5079936;28;20028;-81
2023/12/09 03:09:29;;;;;;;19.65;11.85;;;-0.20;99.90;;;;;;5076903;28;20039;-82
2023/12/09 03:11:55;;;;;;;21.08;11.13;;;-0.20;99.90;;;;;;5076728;28;20040;-82
2023/12/09 03:14:22;;;;;;;19.33;11.43;;;-0.20;99.90;;;;;;5076907;28;20078;-80
2023/12/09 03:16:48;;;;;;;14.43;9.70;;;-0.20;99.90;;;;;;5075879;28;20111;-81
2023/12/09 03:19:13;;;;;;;17.90;9.70;;;-0.20;99.90;;;;;;5063997;28;20048;-81
2023/12/09 03:21:39;;;;;;;13.75;8.93;;;-0.20;99.90;;;;;;5077672;28;20025;-82
2023/12/09 03:24:05;;;;;;;13.65;8.60;;;-0.20;99.90;;;;;;5078067;28;20032;-81
2023/12/09 03:26:31;;;;;;;13.25;8.23;;;-0.20;99.90;;;;;;5081243;28;20489;-81
2023/12/09 03:28:56;;;;;;;13.98;9.10;;;-0.20;99.90;;;;;;5084260;28;20484;-82
2023/12/09 03:31:22;;;;;;;17.00;9.52;;;-0.20;99.90;;;;;;5084057;28;20033;-82
2023/12/09 03:33:48;;;;;;;14.93;9.50;;;-0.20;99.90;;;;;;5076586;28;20066;-81
2023/12/09 03:36:14;;;;;;;16.52;9.00;;;-0.30;99.90;;;;;;5075325;28;20020;-82
2023/12/09 03:38:40;;;;;;;14.88;8.75;;;-0.30;99.90;;;;;;5059207;28;20089;-82
2023/12/09 03:41:07;;;;;;;13.63;8.70;;;-0.30;99.90;;;;;;5077700;28;20477;-82
2023/12/09 03:43:33;;;;;;;12.70;8.68;;;-0.30;99.90;;;;;;5082854;28;20049;-82
2023/12/09 03:45:59;;;;;;;13.63;9.30;;;-0.20;99.90;;;;;;5065946;28;20051;-82
2023/12/09 03:48:25;;;;;;;17.80;10.85;;;-0.20;99.90;;;;;;5081671;28;20033;-80
2023/12/09 03:50:51;;;;;;;14.63;10.02;;;-0.20;99.90;;;;;;5066210;28;20040;-82
2023/12/09 03:53:17;;;;;;;14.77;9.00;;;-0.30;99.90;;;;;;5054866;28;20033;-82
2023/12/09 03:55:43;;;;;;;14.65;9.13;;;-0.30;99.90;;;;;;5042987;28;20029;-81
2023/12/09 03:58:09;;;;;;;14.88;9.45;;;-0.20;99.90;;;;;;5057593;28;20025;-82
2023/12/09 04:00:35;;;;;;;15.35;9.23;;;-0.30;99.90;;;;;;5038565;28;20040;-82
2023/12/09 04:03:02;;;;;;;12.90;7.90;;;-0.30;99.90;;;;;;5056864;28;20079;-81
2023/12/09 04:05:27;;;;;;;13.50;8.23;;;-0.30;99.90;;;;;;5039499;28;20119;-82
2023/12/09 04:07:53;;;;;;;13.35;8.25;;;-0.30;99.90;;;;;;5061932;28;20071;-82
2023/12/09 04:10:18;;;;;;;13.95;7.93;;;-0.30;99.90;;;;;;5060560;28;20033;-83
2023/12/09 04:12:44;;;;;;;12.85;8.55;;;-0.30;99.90;;;;;;5039782;28;20040;-82
2023/12/09 04:15:11;;;;;;;13.45;8.65;;;-0.30;99.90;;;;;;5056521;28;20035;-82
2023/12/09 04:17:37;;;;;;;14.02;9.20;;;-0.20;99.90;;;;;;5071910;28;20397;-82
2023/12/09 04:20:08;;;;;;;13.70;8.65;;;-0.20;99.90;;;;;;5082628;28;20016;-82
2023/12/09 04:22:37;;;;;;;14.18;9.18;;;-0.30;99.90;;;;;;5083460;28;20051;-82
2023/12/09 04:25:04;;;;;;;12.75;9.07;;;-0.30;99.90;;;;;;5081702;28;20040;-82
2023/12/09 04:27:32;;;;;;;14.18;8.93;;;-0.30;99.90;;;;;;5082016;28;20028;-81
2023/12/09 04:29:58;;;;;;;14.30;9.40;;;-0.30;99.90;;;;;;5084643;28;20020;-81
2023/12/09 04:32:24;;;;;;;14.05;9.60;;;-0.20;99.90;;;;;;5066955;28;20028;-81
2023/12/09 04:34:49;;;;;;;15.10;9.73;;;-0.30;99.90;;;;;;5083399;28;20028;-81
2023/12/09 04:37:15;;;;;;;15.50;9.98;;;-0.30;99.90;;;;;;5085082;28;20111;-82
2023/12/09 04:39:41;;;;;;;14.85;9.38;;;-0.30;99.90;;;;;;5082832;28;20024;-82
2023/12/09 04:42:06;;;;;;;14.50;10.32;;;-0.30;99.90;;;;;;5080449;28;20404;-82
2023/12/09 04:44:32;;;;;;;15.60;10.38;;;-0.30;99.90;;;;;;5083981;28;20032;-82
2023/12/09 04:46:58;;;;;;;14.60;9.38;;;-0.30;99.90;;;;;;5081338;28;20051;-82
2023/12/09 04:49:23;;;;;;;14.68;9.50;;;-0.30;99.90;;;;;;5078021;28;20074;-82
2023/12/09 04:51:49;;;;;;;15.05;9.90;;;-0.30;99.90;;;;;;5076502;28;20029;-82
2023/12/09 04:54:15;;;;;;;14.52;9.30;;;-0.30;99.90;;;;;;5060689;28;20032;-82
2023/12/09 04:56:40;;;;;;;17.05;10.40;;;-0.30;99.90;;;;;;5077461;28;20032;-82
2023/12/09 04:59:06;;;;;;;13.73;9.27;;;-0.30;99.90;;;;;;5049536;28;20055;-82
2023/12/09 05:01:32;;;;;;;14.52;9.02;;;-0.30;99.90;;;;;;5077661;28;20027;-82
2023/12/09 05:03:57;;;;;;;16.75;10.02;;;-0.20;99.90;;;;;;5065367;28;20047;-82
2023/12/09 05:06:23;;;;;;;18.13;10.25;;;-0.20;99.90;;;;;;5076902;28;20028;-82
2023/12/09 05:08:49;;;;;;;16.85;9.98;;;-0.30;99.90;;;;;;5062268;28;20033;-82
2023/12/09 05:11:14;;;;;;;14.77;10.00;;;-0.20;99.90;;;;;;5076923;28;20036;-82
2023/12/09 05:13:40;;;;;;;14.75;9.82;;;-0.20;99.90;;;;;;5079190;28;20032;-81
2023/12/09 05:16:06;;;;;;;16.30;9.90;;;-0.20;99.90;;;;;;5085575;28;20115;-82
2023/12/09 05:18:33;;;;;;;15.32;9.65;;;-0.20;99.90;;;;;;5082002;28;20033;-82
2023/12/09 05:20:59;;;;;;;14.10;8.88;;;-0.20;99.90;;;;;;5059602;28;20094;-82
2023/12/09 05:23:25;;;;;;;15.40;9.55;;;-0.20;99.90;;;;;;5075968;28;20505;-82
2023/12/09 05:25:51;;;;;;;15.25;9.85;;;-0.20;99.90;;;;;;5076468;28;20029;-82
2023/12/09 05:28:18;;;;;;;18.75;10.95;;;-0.20;99.90;;;;;;5077212;28;20048;-82
2023/12/09 05:30:43;;;;;;;17.67;10.20;;;-0.10;99.90;;;;;;5079558;28;20443;-83
2023/12/09 05:33:09;;;;;;;17.42;11.05;;;-0.20;99.90;;;;;;5078931;28;20028;-82
2023/12/09 05:35:35;;;;;;;16.42;10.55;;;-0.20;99.90;;;;;;5077671;28;20026;-82
2023/12/09 05:38:01;;;;;;;15.23;9.85;;;-0.20;99.90;;;;;;5080425;28;20493;-81
2023/12/09 05:40:27;;;;;;;14.93;9.82;;;-0.20;99.90;;;;;;5085749;28;20032;-82
2023/12/09 05:42:52;;;;;;;16.05;9.95;;;-0.20;99.90;;;;;;5082231;28;20028;-82
2023/12/09 05:45:18;;;;;;;16.55;10.23;;;-0.20;99.90;;;;;;5077867;28;20036;-82
2023/12/09 05:47:44;;;;;;;15.00;9.80;;;-0.20;99.90;;;;;;5077735;28;20028;-82
2023/12/09 05:50:10;;;;;;;19.70;12.27;;;-0.20;99.90;;;;;;5060790;28;20025;-82
2023/12/09 05:52:36;;;;;;;20.13;12.10;;;-0.20;99.90;;;;;;5077594;28;20024;-82
2023/12/09 05:55:01;;;;;;;18.98;11.27;;;-0.20;99.90;;;;;;5077061;28;20484;-81
2023/12/09 05:57:27;;;;;;;15.60;10.07;;;-0.20;99.90;;;;;;5076985;28;20029;-82
2023/12/09 05:59:53;;;;;;;19.75;11.25;;;-0.20;99.90;;;;;;5077124;28;20035;-82
2023/12/09 06:02:18;;;;;;;19.27;11.35;;;-0.20;99.90;;;;;;5082725;28;20040;-82
2023/12/09 06:04:44;;;;;;;19.85;11.38;;;-0.20;99.90;;;;;;5076269;28;20035;-82
2023/12/09 06:07:10;;;;;;;18.23;11.05;;;-0.20;99.90;;;;;;5075571;28;20112;-82
2023/12/09 06:09:36;;;;;;;18.70;11.90;;;-0.20;99.90;;;;;;5075395;28;20036;-81
2023/12/09 06:12:01;;;;;;;18.85;11.23;;;-0.20;99.90;;;;;;5075037;28;20037;-81
2023/12/09 06:14:27;;;;;;;19.27;11.85;;;-0.20;99.90;;;;;;5045493;28;20031;-81
2023/12/09 06:16:53;;;;;;;18.98;11.48;;;-0.20;99.90;;;;;;5087150;28;20024;-81
2023/12/09 06:19:18;;;;;;;17.25;10.18;;;-0.20;99.90;;;;;;5085029;28;20519;-81
2023/12/09 06:21:44;;;;;;;15.73;10.57;;;-0.20;99.90;;;;;;5079239;28;20078;-81
2023/12/09 06:24:11;;;;;;;18.52;11.13;;;-0.20;99.90;;;;;;5076280;28;20107;-81
2023/12/09 06:26:47;;;;;;;15.55;11.32;;;-0.20;99.90;;;;;;5076399;28;20036;-81
2023/12/09 06:29:14;;;;;;;17.38;11.20;;;-0.20;99.90;;;;;;5078123;28;20025;-81
2023/12/09 06:31:40;;;;;;;19.55;12.13;;;-0.20;99.90;;;;;;5078149;28;20032;-81
2023/12/09 06:34:05;;;;;;;19.23;11.50;;;-0.20;99.90;;;;;;5077924;28;20385;-81
2023/12/09 06:36:31;;;;;;;19.42;11.50;;;-0.20;99.90;;;;;;5090017;28;20029;-81
2023/12/09 06:38:57;;;;;;;19.02;11.63;;;-0.20;99.90;;;;;;5089038;28;20024;-81
2023/12/09 06:41:22;;;;;;;20.85;11.43;;;-0.20;99.90;;;;;;5088467;28;20040;-81
2023/12/09 06:43:48;;;;;;;22.55;12.25;;;-0.20;99.90;;;;;;5087657;28;20078;-80
2023/12/09 06:46:13;;;;;;;24.55;12.88;;;-0.20;99.90;;;;;;5084854;28;20440;-82
2023/12/09 06:48:39;;;;;;;30.30;15.48;;;-0.20;99.90;;;;;;5083358;28;20029;-81
2023/12/09 06:51:08;;;;;;;30.70;16.02;;;-0.20;99.90;;;;;;5063305;28;20453;-81
2023/12/09 06:53:37;;;;;;;32.65;16.08;;;-0.20;99.90;;;;;;5082293;28;20024;-81
2023/12/09 06:56:03;;;;;;;29.63;15.70;;;-0.20;99.90;;;;;;5083839;28;20026;-81
2023/12/09 06:58:29;;;;;;;30.63;17.48;;;-0.20;99.90;;;;;;5087039;28;20048;-81
2023/12/09 07:00:55;;;;;;;27.25;15.07;;;-0.30;99.90;;;;;;5082121;28;20086;-80
2023/12/09 07:03:21;;;;;;;29.30;16.38;;;-0.20;99.90;;;;;;5082762;28;20099;-80
2023/12/09 07:05:47;;;;;;;24.83;14.73;;;-0.30;99.90;;;;;;5076664;28;20033;-81
2023/12/09 07:08:12;;;;;;;24.42;15.13;;;-0.30;99.90;;;;;;5076109;28;20477;-81
2023/12/09 07:10:38;;;;;;;26.58;14.93;;;-0.30;99.90;;;;;;5082262;28;20500;-80
2023/12/09 07:13:04;;;;;;;29.52;15.05;;;-0.30;99.90;;;;;;5080101;28;20033;-82
2023/12/09 07:15:30;;;;;;;24.02;13.82;;;-0.30;99.90;;;;;;5060625;28;20162;-80
2023/12/09 07:17:56;;;;;;;29.48;15.05;;;-0.30;99.90;;;;;;5076155;28;20502;-81
2023/12/09 07:20:21;;;;;;;25.33;14.20;;;-0.30;99.90;;;;;;5059490;28;20024;-81
2023/12/09 07:22:47;;;;;;;28.20;14.85;;;-0.30;99.90;;;;;;5077293;28;20036;-81
2023/12/09 07:25:12;;;;;;;25.58;14.05;;;-0.30;99.90;;;;;;5084406;28;20036;-81
2023/12/09 07:27:38;;;;;;;23.10;13.23;;;-0.30;99.90;;;;;;5070380;28;20049;-81
2023/12/09 07:30:05;;;;;;;19.85;12.48;;;-0.30;99.90;;;;;;5079224;28;20032;-81
2023/12/09 07:32:31;;;;;;;24.55;13.70;;;-0.20;99.90;;;;;;5082776;28;20029;-80
2023/12/09 07:34:56;;;;;;;25.25;14.38;;;-0.20;99.90;;;;;;5079881;28;20012;-80
2023/12/09 07:37:22;;;;;;;25.13;15.75;;;-0.20;99.90;;;;;;5081768;28;20132;-80
2023/12/09 07:39:48;;;;;;;26.17;16.35;;;-0.10;99.90;;;;;;5060528;28;20099;-82
2023/12/09 07:42:13;;;;;;;24.92;15.30;;;-0.20;99.90;;;;;;5085021;28;20043;-82
2023/12/09 07:44:39;;;;;;;24.15;15.45;;;-0.20;99.90;;;;;;5083054;28;20033;-81
2023/12/09 07:47:05;;;;;;;21.00;14.70;;;-0.20;99.90;;;;;;5084296;28;20523;-82
2023/12/09 07:49:30;;;;;;;24.33;14.48;;;-0.10;99.90;;;;;;5078805;28;20025;-82
2023/12/09 07:51:56;;;;;;;22.83;14.10;;;-0.10;99.90;;;;;;5086392;28;20036;-81
2023/12/09 07:54:21;;;;;;;27.33;16.15;;;-0.10;99.90;;;;;;5090558;28;20089;-81
2023/12/09 07:56:47;;;;;;;25.15;15.40;;;0.00;99.90;;;;;;5084008;28;20025;-81
2023/12/09 07:59:13;;;;;;;29.20;16.90;;;0.00;99.90;;;;;;5064053;28;20476;-81
2023/12/09 08:01:40;;;;;;;28.73;17.35;;;0.00;99.90;;;;;;5066324;28;20392;-81
2023/12/09 08:04:05;;;;;;;28.67;18.23;;;0.10;99.90;;;;;;5087601;28;20051;-81
2023/12/09 08:06:32;;;;;;;30.88;18.33;;;0.10;99.90;;;;;;5084952;28;20028;-80
2023/12/09 08:09:01;;;;;;;31.17;19.25;;;0.10;99.90;;;;;;5081074;28;20105;-81
2023/12/09 08:11:26;;;;;;;32.65;19.25;;;0.20;99.90;;;;;;5062969;28;20044;-81
2023/12/09 08:13:52;;;;;;;30.02;18.90;;;0.20;99.90;;;;;;5078177;28;20043;-81
2023/12/09 08:16:17;;;;;;;40.28;24.30;;;0.20;99.90;;;;;;5077162;28;20067;-82
2023/12/09 08:18:43;;;;;;;47.17;27.02;;;0.20;99.90;;;;;;5078055;28;20040;-81
2023/12/09 08:21:10;;;;;;;35.08;19.10;;;0.20;99.90;;;;;;5062166;28;20027;-82
2023/12/09 08:23:36;;;;;;;35.15;18.20;;;0.20;99.90;;;;;;5060758;28;20032;-81
2023/12/09 08:26:03;;;;;;;37.85;22.65;;;0.20;99.90;;;;;;5062054;28;20115;-82
2023/12/09 08:28:29;;;;;;;33.08;19.48;;;0.20;99.90;;;;;;5079898;28;20090;-81
2023/12/09 08:30:55;;;;;;;33.50;21.92;;;0.20;99.90;;;;;;5082155;28;20036;-81
2023/12/09 08:33:20;;;;;;;38.67;24.13;;;0.20;99.90;;;;;;5081335;28;20033;-81
2023/12/09 08:35:46;;;;;;;33.28;21.60;;;0.20;99.90;;;;;;5078439;28;20080;-81
2023/12/09 08:38:12;;;;;;;35.40;21.13;;;0.20;99.90;;;;;;5079350;28;20029;-81
2023/12/09 08:40:37;;;;;;;39.92;23.65;;;0.30;99.90;;;;;;5080857;28;20120;-81
2023/12/09 08:43:03;;;;;;;41.20;24.05;;;0.20;99.90;;;;;;5066291;28;20037;-81
2023/12/09 08:45:31;;;;;;;39.97;25.75;;;0.30;99.90;;;;;;5082738;28;20392;-82
2023/12/09 08:47:57;;;;;;;39.90;23.63;;;0.30;99.90;;;;;;5083720;28;20036;-83
2023/12/09 08:50:23;;;;;;;39.70;25.10;;;0.40;99.90;;;;;;5082402;28;20078;-83
2023/12/09 08:52:48;;;;;;;39.85;24.27;;;0.40;99.90;;;;;;5050009;28;20033;-84
2023/12/09 08:55:15;;;;;;;40.15;25.15;;;0.60;99.90;;;;;;5083547;28;20100;-83
2023/12/09 08:57:41;;;;;;;39.72;25.02;;;0.70;99.90;;;;;;5083313;28;20023;-81
2023/12/09 09:00:08;;;;;;;47.65;26.88;;;0.80;99.90;;;;;;5083449;28;20474;-83
2023/12/09 09:02:34;;;;;;;47.83;26.05;;;0.90;99.90;;;;;;5062254;28;20024;-83
2023/12/09 09:04:59;;;;;;;45.30;26.92;;;1.00;99.90;;;;;;5078854;28;20039;-83
2023/12/09 09:07:25;;;;;;;43.58;26.25;;;1.00;99.90;;;;;;5061133;28;20033;-82
2023/12/09 09:09:51;;;;;;;45.38;25.95;;;1.00;99.90;;;;;;5079000;28;20103;-82
2023/12/09 09:12:16;;;;;;;43.88;26.13;;;1.10;99.90;;;;;;5077866;28;20117;-81
2023/12/09 09:14:42;;;;;;;43.78;25.60;;;1.10;99.90;;;;;;5079726;28;20061;-81
2023/12/09 09:17:08;;;;;;;43.50;24.30;;;1.10;99.90;;;;;;5077314;28;20029;-81
2023/12/09 09:19:35;;;;;;;39.53;23.65;;;1.20;99.90;;;;;;5081575;28;20025;-81
2023/12/09 09:22:00;;;;;;;36.88;22.85;;;1.20;99.90;;;;;;5081127;28;20021;-82
2023/12/09 09:24:26;;;;;;;35.63;23.63;;;1.20;99.90;;;;;;5076858;28;20047;-82
2023/12/09 09:26:52;;;;;;;34.40;21.70;;;1.20;99.90;;;;;;5078299;28;20174;-81
2023/12/09 09:29:18;;;;;;;35.15;21.95;;;1.20;99.90;;;;;;5078055;28;20029;-83
2023/12/09 09:31:43;;;;;;;32.78;21.30;;;1.30;99.90;;;;;;5078552;28;20028;-83
2023/12/09 09:34:09;;;;;;;38.33;23.38;;;1.40;99.90;;;;;;5078660;28;20036;-83
2023/12/09 09:36:35;;;;;;;40.60;22.52;;;1.50;99.90;;;;;;5078167;28;20076;-82
2023/12/09 09:39:00;;;;;;;37.63;22.60;;;1.60;99.90;;;;;;5076591;28;20373;-81
2023/12/09 09:41:46;;;;;;;35.35;21.38;;;1.80;99.90;;;;;;5076956;28;20021;-81
2023/12/09 09:44:17;;;;;;;30.92;20.55;;;2.00;99.90;;;;;;5077336;28;20099;-81
2023/12/09 09:46:44;;;;;;;28.35;19.38;;;2.10;99.90;;;;;;5076190;28;20052;-80
2023/12/09 09:49:11;;;;;;;25.58;18.05;;;2.20;99.90;;;;;;5075973;28;20056;-80
2023/12/09 09:51:42;;;;;;;26.05;16.98;;;2.30;99.90;;;;;;5075380;28;20484;-82
2023/12/09 09:54:26;;;;;;;28.20;17.30;;;2.40;99.90;;;;;;5076288;28;20038;-83
2023/12/09 09:56:53;;;;;;;29.08;16.27;;;2.40;99.90;;;;;;5075723;28;20388;-81
2023/12/09 09:59:20;;;;;;;24.75;14.90;;;2.40;99.90;;;;;;5076929;28;20021;-80
2023/12/09 10:01:46;;;;;;;22.40;14.40;;;2.40;99.90;;;;;;5075485;28;20476;-82
2023/12/09 10:04:12;;;;;;;23.75;13.43;;;2.40;99.90;;;;;;5077411;28;20051;-83
2023/12/09 10:06:39;;;;;;;19.88;12.13;;;2.30;99.90;;;;;;5075370;28;20455;-82
2023/12/09 10:09:05;;;;;;;26.35;13.50;;;2.20;99.90;;;;;;5075645;28;20035;-82
2023/12/09 10:11:31;;;;;;;24.25;13.07;;;2.10;99.90;;;;;;5074613;28;20036;-81
2023/12/09 10:13:57;;;;;;;25.27;13.23;;;2.00;99.90;;;;;;5058007;28;20037;-83
2023/12/09 10:16:23;;;;;;;23.02;11.93;;;2.00;99.90;;;;;;5057691;28;20020;-82
2023/12/09 10:18:48;;;;;;;22.00;11.80;;;1.90;99.90;;;;;;5074231;28;20021;-82
2023/12/09 10:21:15;;;;;;;25.05;12.40;;;1.90;99.90;;;;;;5077932;28;20028;-84
2023/12/09 10:23:43;;;;;;;22.00;12.48;;;1.90;99.90;;;;;;5079733;28;20389;-84
2023/12/09 10:26:09;;;;;;;25.17;12.13;;;1.90;99.90;;;;;;5078758;28;20133;-84
2023/12/09 10:28:35;;;;;;;21.40;11.88;;;1.90;99.90;;;;;;5062598;28;20067;-84
2023/12/09 10:31:02;;;;;;;21.52;11.98;;;1.90;99.90;;;;;;5063033;28;20040;-83
2023/12/09 10:33:32;;;;;;;22.27;11.90;;;2.00;99.90;;;;;;5081048;28;20112;-83
2023/12/09 10:35:59;;;;;;;20.07;11.33;;;2.00;99.90;;;;;;5080850;28;20021;-82
2023/12/09 10:38:25;;;;;;;25.50;12.38;;;2.00;99.90;;;;;;5078870;28;20024;-82
2023/12/09 10:40:51;;;;;;;19.60;11.32;;;2.10;99.90;;;;;;5082276;28;20362;-82
2023/12/09 10:43:17;;;;;;;23.77;12.98;;;2.10;99.90;;;;;;5047510;28;20079;-82
2023/12/09 10:45:43;;;;;;;20.90;11.50;;;2.20;99.90;;;;;;5062081;28;20039;-82
2023/12/09 10:48:10;;;;;;;19.95;11.50;;;2.20;99.90;;;;;;5082445;28;20035;-83
2023/12/09 10:50:39;;;;;;;18.90;11.10;;;2.30;99.90;;;;;;5081127;28;20029;-82
2023/12/09 10:53:05;;;;;;;20.38;11.38;;;2.30;99.90;;;;;;5081617;28;20043;-82
2023/12/09 10:55:31;;;;;;;20.17;11.70;;;2.30;99.90;;;;;;5078904;28;20390;-83
2023/12/09 10:58:02;;;;;;;19.77;11.88;;;2.30;99.90;;;;;;5076968;28;20098;-84
2023/12/09 11:00:30;;;;;;;23.65;12.93;;;2.30;99.90;;;;;;5059679;28;20024;-83
2023/12/09 11:02:57;;;;;;;24.38;13.35;;;2.40;99.90;;;;;;5062117;28;20103;-82
2023/12/09 11:05:23;;;;;;;29.13;15.55;;;2.40;99.90;;;;;;5063943;28;20040;-84
2023/12/09 11:07:49;;;;;;;20.58;11.57;;;2.40;99.90;;;;;;5062969;28;20032;-83
2023/12/09 11:10:16;;;;;;;19.10;11.13;;;2.30;99.90;;;;;;5065047;28;20039;-82
2023/12/09 11:12:44;;;;;;;14.88;10.02;;;2.20;99.90;;;;;;5065509;28;20120;-84
2023/12/09 11:15:13;;;;;;;15.23;9.63;;;2.10;99.90;;;;;;5082898;28;20462;-84
2023/12/09 11:17:41;;;;;;;17.05;10.15;;;2.00;99.90;;;;;;5082387;28;20024;-83
2023/12/09 11:20:13;;;;;;;15.40;9.63;;;2.00;99.90;;;;;;5075740;28;20047;-83
2023/12/09 11:22:43;;;;;;;14.88;9.50;;;1.90;99.90;;;;;;5075938;28;20021;-82
2023/12/09 11:25:25;;;;;;;16.75;10.63;;;1.90;99.90;;;;;;5075386;28;20033;-83
2023/12/09 11:27:51;;;;;;;;;;;2.00;99.90;;;;;;5057375;28;20090;-83
2023/12/09 11:30:33;;;;;;;17.65;10.30;;;2.10;99.90;;;;;;5073236;28;19995;-83
2023/12/09 11:32:59;;;;;;;21.15;11.60;;;2.20;99.90;;;;;;5074418;28;20047;-81
2023/12/09 11:35:26;;;;;;;23.35;13.90;;;2.30;99.90;;;;;;5074112;28;20028;-83
2023/12/09 11:37:54;;;;;;;28.02;16.00;;;2.40;99.90;;;;;;5074956;28;20031;-83
2023/12/09 11:40:21;;;;;;;24.45;13.30;;;2.40;99.90;;;;;;5075428;28;20089;-83
2023/12/09 11:42:49;;;;;;;23.55;12.80;;;2.40;99.90;;;;;;5075308;28;20048;-83
2023/12/09 11:45:14;;;;;;;20.00;11.80;;;2.40;99.90;;;;;;5058661;28;20036;-83
2023/12/09 11:47:41;;;;;;;17.00;10.27;;;2.30;99.90;;;;;;5079786;28;20033;-82
2023/12/09 11:50:07;;;;;;;19.38;11.25;;;2.30;99.90;;;;;;5042798;28;20029;-83
2023/12/09 11:52:33;;;;;;;15.15;9.80;;;2.30;99.90;;;;;;5060214;28;20075;-82
2023/12/09 11:55:10;;;;;;;15.90;9.07;;;2.30;99.90;;;;;;5058541;28;20111;-82
2023/12/09 11:57:37;;;;;;;13.73;9.18;;;2.20;99.90;;;;;;5055663;28;20033;-83
2023/12/09 12:00:08;;;;;;;18.95;10.50;;;2.20;99.90;;;;;;5054690;28;20029;-83
2023/12/09 12:02:34;;;;;;;18.83;9.57;;;2.20;99.90;;;;;;5053138;28;20029;-83
2023/12/09 12:04:59;;;;;;;18.95;10.27;;;2.30;99.90;;;;;;5053233;28;20029;-83
2023/12/09 12:07:25;;;;;;;19.67;11.40;;;2.30;99.90;;;;;;5058163;28;20044;-82
2023/12/09 12:09:51;;;;;;;26.02;12.68;;;2.40;99.90;;;;;;5057727;28;20031;-83
2023/12/09 12:12:18;;;;;;;18.23;11.38;;;2.30;99.90;;;;;;5055847;28;20047;-83
2023/12/09 12:14:46;;;;;;;22.63;11.50;;;2.30;99.90;;;;;;5054013;28;20115;-82
2023/12/09 12:17:12;;;;;;;19.25;11.57;;;2.40;99.90;;;;;;5052585;28;20389;-83
2023/12/09 12:19:39;;;;;;;19.02;10.57;;;2.30;99.90;;;;;;5080034;28;20021;-83
2023/12/09 12:22:05;;;;;;;20.80;11.20;;;2.40;99.90;;;;;;5080908;28;20092;-83
2023/12/09 12:24:43;;;;;;;19.17;9.75;;;2.40;99.90;;;;;;5080004;28;20442;-83
2023/12/09 12:27:09;;;;;;;17.38;10.18;;;2.40;99.90;;;;;;5080889;28;20377;-84
2023/12/09 12:29:38;;;;;;;18.38;10.52;;;2.50;99.90;;;;;;5075596;28;20562;-85
2023/12/09 12:32:11;;;;;;;21.25;10.25;;;2.50;99.90;;;;;;5057192;28;20025;-84